Star Mill, IN

8:09 AM EST on December 09, 2016 (GMT -0500)
| | Change Station
Active Advisory: Winter Weather Advisory

Elev -9999 ft 0.00 °N, 0.00 °E | Updated 0 second ago

Overcast
Overcast
°F
Feels Like °F
N
Wind Variable Wind from North
Gusts mph

Today
High -- | Low -- °F
--% Chance of Precip.
Yesterday
High -- | Low -- °F
Precip. -- in
Pressure 30.38 in
Visibility 5.0 miles
Clouds Overcast 900 ft
Dew Point Not available.
Humidity Not available.
Rainfall --
Snow Depth Not available.
7:57 AM 5:11 PM
Waxing Gibbous, 74% visible
METAR KIRS 091255Z AUTO 26007KT 5SM -SN OVC009 M05/M07 A3038 RMK AO2 T10551066
Pressure 30.38 in
Visibility 5.0 miles
Clouds Overcast 900 ft
Dew Point Not available.
Humidity Not available.
Rainfall --
Snow Depth Not available.
7:57 AM 5:11 PM
Waxing Gibbous, 74% visible
METAR KIRS 091255Z AUTO 26007KT 5SM -SN OVC009 M05/M07 A3038 RMK AO2 T10551066

10-Day Weather Forecast

Almanac

Astronomy

Dec. 09, 2016 Rise Set
Actual Time
Civil Twilight
Nautical Twilight
Astronomical Twilight
Moon
Length of Visible Light
Length of Day
Tomorrow will be .
, % of the Moon is Illuminated

Today's Extremes

State Highs State Lows

Community

WunderPhotos

Upload Photos

1,956,407 photos uploaded!

WunderBlog® & News

Nearby

Air Quality

  Air Quality AQ Index Pollutant
Not available.

Snow Depth

Station Depth Elevation

Earthquake Activity

City Distance Mag. Time & Date
Minimum magnitude displayed is 2.5.

Coastal Water Temperatures

Place Temperature

Stations

Nearby Weather Stations

Station Location Temp. Windchill Dew Point Humidity Wind Precip. Elev Updated Type
                   

Watches & Warnings

Winter Weather Advisory
Issued: 3:01 AM CST Dec. 9, 2016 – National Weather Service

... Winter Weather Advisory remains in effect until 4 PM EST /3 PM
CST/ this afternoon...

Hazardous weather...

* lake effect snow showers will expand in coverage and intensity
   into this morning. Some blowing and drifting snow of the snow
   may occur in outlying areas.

* Additional snow accumulations of 1 to 2 inches are possible
   through the morning.

* Wind chills 10 above to 15 above zero.

Impacts...

* snow covered and slippery roads are expected especially from
   late this evening into Friday morning.

* Reduced visibility can be expected in the heavier snow
   showers.

Precautionary/preparedness actions...

A Winter Weather Advisory for lake effect snow and drifting snow
means that visibilities will be limited due to a combination of
falling and blowing snow. Use caution when traveling...
especially in open areas.